Time;durP1;ratioP1;P1;durP2;ratioP2;P2;SDS_P1;SDS_P2;PMS_P1;PMS_P2;Temp;Humidity;BMP_temperature;BMP_pressure;BME280_temperature;BME280_humidity;BME280_pressure;Samples;Min_cycle;Max_cycle;Signal;HPM_P1;HPM_P2
2023/02/15 00:02:08;;;;;;;31.25;27.98;;;1.10;99.90;;;;;;4166414;28;20043;-85
2023/02/15 00:04:45;;;;;;;34.95;30.48;;;1.20;99.90;;;;;;4164690;28;20108;-85
2023/02/15 00:07:05;;;;;;;33.70;27.33;;;1.30;99.90;;;;;;4177819;28;20087;-85
2023/02/15 00:09:25;;;;;;;31.02;27.65;;;1.30;99.90;;;;;;4159082;28;20084;-85
2023/02/15 00:11:53;;;;;;;29.17;25.02;;;1.30;99.90;;;;;;4179275;28;20044;-85
2023/02/15 00:14:20;;;;;;;40.63;32.38;;;1.40;99.90;;;;;;4160359;28;20060;-85
2023/02/15 00:16:42;;;;;;;37.25;30.95;;;1.40;99.90;;;;;;4168318;28;20036;-86
2023/02/15 00:19:03;;;;;;;37.10;30.58;;;1.20;99.90;;;;;;4162438;28;20153;-86
2023/02/15 00:21:23;;;;;;;41.70;36.50;;;1.00;99.90;;;;;;4167341;28;20233;-85
2023/02/15 00:23:44;;;;;;;58.05;51.78;;;0.60;99.90;;;;;;4160890;28;20113;-85
2023/02/15 00:26:11;;;;;;;54.53;49.63;;;0.20;99.90;;;;;;4159685;28;20049;-85
2023/02/15 00:28:31;;;;;;;55.30;50.35;;;-0.10;99.90;;;;;;4160718;28;20084;-85
2023/02/15 00:30:50;;;;;;;58.28;53.33;;;-0.10;99.90;;;;;;4159463;28;20052;-85
2023/02/15 00:33:10;;;;;;;56.17;51.53;;;-0.20;99.90;;;;;;4164409;28;20114;-85
2023/02/15 00:35:30;;;;;;;59.15;54.35;;;-0.20;99.90;;;;;;4165039;28;20390;-85
2023/02/15 00:37:52;;;;;;;47.38;43.97;;;-0.10;99.90;;;;;;4171258;28;20063;-85
2023/02/15 00:40:12;;;;;;;37.10;34.58;;;0.00;99.90;;;;;;4174888;28;20052;-85
2023/02/15 00:42:31;;;;;;;36.38;33.70;;;0.10;99.90;;;;;;4161277;28;20087;-85
2023/02/15 00:44:51;;;;;;;46.30;42.42;;;0.10;99.90;;;;;;4161610;28;20096;-85
2023/02/15 00:47:11;;;;;;;49.05;44.70;;;0.10;99.90;;;;;;4169959;28;20071;-85
2023/02/15 00:49:31;;;;;;;55.90;49.22;;;0.10;99.90;;;;;;4168083;28;20403;-85
2023/02/15 00:51:52;;;;;;;52.45;47.35;;;0.10;99.90;;;;;;4162456;28;20081;-85
2023/02/15 00:54:11;;;;;;;51.45;46.92;;;0.00;99.90;;;;;;4164865;28;20048;-85
2023/02/15 00:56:31;;;;;;;50.28;45.88;;;-0.10;99.90;;;;;;4165857;28;20056;-85
2023/02/15 00:58:52;;;;;;;51.35;46.72;;;-0.20;99.90;;;;;;4165255;28;20084;-85
2023/02/15 01:01:15;;;;;;;53.28;48.90;;;-0.20;99.90;;;;;;4173947;28;20047;-85
2023/02/15 01:03:35;;;;;;;;;;;0.00;99.90;;;;;;4161631;28;20297;-85
2023/02/15 01:05:55;;;;;;;38.97;35.35;;;0.00;99.90;;;;;;4173625;28;19940;-85
2023/02/15 01:08:15;;;;;;;32.47;29.45;;;0.10;99.90;;;;;;4163132;28;20095;-85
2023/02/15 01:10:36;;;;;;;32.60;30.17;;;0.10;99.90;;;;;;4163104;28;20109;-85
2023/02/15 01:12:57;;;;;;;32.65;29.70;;;0.20;99.90;;;;;;4163010;28;20052;-85
2023/02/15 01:15:17;;;;;;;29.75;26.92;;;0.10;99.90;;;;;;4162736;28;20410;-85
2023/02/15 01:17:37;;;;;;;26.55;23.80;;;0.10;99.90;;;;;;4166757;28;20045;-85
2023/02/15 01:19:56;;;;;;;32.45;29.38;;;0.10;99.90;;;;;;4164096;28;20045;-85
2023/02/15 01:22:18;;;;;;;30.55;27.63;;;-0.10;99.90;;;;;;4162148;28;20056;-85
2023/02/15 01:24:38;;;;;;;35.90;32.63;;;-0.10;99.90;;;;;;4176323;28;20048;-85
2023/02/15 01:26:59;;;;;;;38.83;35.58;;;0.00;99.90;;;;;;4170388;28;20045;-85
2023/02/15 01:29:19;;;;;;;44.22;40.78;;;0.00;99.90;;;;;;4162780;28;20074;-85
2023/02/15 01:31:39;;;;;;;40.90;37.42;;;0.00;99.90;;;;;;4170038;28;20137;-85
2023/02/15 01:33:59;;;;;;;38.92;35.85;;;0.00;99.90;;;;;;4163493;28;20114;-85
2023/02/15 01:36:20;;;;;;;40.42;36.80;;;0.00;99.90;;;;;;4166438;28;20125;-85
2023/02/15 01:38:40;;;;;;;46.65;42.92;;;-0.10;99.90;;;;;;4168815;28;20052;-85
2023/02/15 01:43:43;;;;;;;55.15;50.58;;;-0.30;99.90;;;;;;4167032;28;20068;-85
2023/02/15 01:46:03;;;;;;;51.97;47.63;;;-0.50;99.90;;;;;;4181194;28;20083;-85
2023/02/15 01:48:27;;;;;;;52.85;48.28;;;-0.50;99.90;;;;;;4164091;28;20071;-85
2023/02/15 01:50:54;;;;;;;50.22;46.78;;;-0.60;99.90;;;;;;4178691;28;20040;-85
2023/02/15 01:53:38;;;;;;;46.08;42.80;;;-0.50;99.90;;;;;;4164413;28;20087;-85
2023/02/15 01:56:06;;;;;;;45.08;41.95;;;-0.50;99.90;;;;;;4164986;28;20260;-85
2023/02/15 01:58:28;;;;;;;43.03;40.10;;;-0.60;99.90;;;;;;4167193;28;20064;-85
2023/02/15 02:00:49;;;;;;;42.22;39.60;;;-0.50;99.90;;;;;;4161818;28;20136;-85
2023/02/15 02:03:09;;;;;;;46.30;42.83;;;-0.40;99.90;;;;;;4166933;28;20092;-85
2023/02/15 02:05:29;;;;;;;47.03;43.50;;;-0.50;99.90;;;;;;4177654;28;20048;-85
2023/02/15 02:07:52;;;;;;;43.28;40.03;;;-0.50;99.90;;;;;;4167532;28;20057;-85
2023/02/15 02:10:16;;;;;;;44.92;41.90;;;-0.60;99.90;;;;;;4160420;28;20056;-85
2023/02/15 02:12:40;;;;;;;48.88;45.25;;;-0.60;99.90;;;;;;4171696;28;20072;-85
2023/02/15 02:15:00;;;;;;;44.42;41.25;;;-0.50;99.90;;;;;;4161421;28;20080;-85
2023/02/15 02:17:42;;;;;;;45.72;42.45;;;-0.40;99.90;;;;;;4161233;28;20272;-85
2023/02/15 02:20:26;;;;;;;41.95;39.00;;;-0.50;99.90;;;;;;4165721;28;20419;-85
2023/02/15 02:23:08;;;;;;;42.25;39.25;;;-0.50;99.90;;;;;;4175830;28;20072;-85
2023/02/15 02:25:46;;;;;;;47.42;43.55;;;-0.40;99.90;;;;;;4172833;28;20037;-85
2023/02/15 02:28:21;;;;;;;44.58;41.45;;;-0.30;99.90;;;;;;4167311;28;20386;-85
2023/02/15 02:31:00;;;;;;;47.40;44.17;;;-0.50;99.90;;;;;;4175240;28;20044;-85
2023/02/15 02:33:47;;;;;;;43.83;40.90;;;-0.60;99.90;;;;;;4165474;28;20149;-85
2023/02/15 02:36:24;;;;;;;38.58;36.17;;;-0.60;99.90;;;;;;4171098;28;20365;-85
2023/02/15 02:38:44;;;;;;;33.20;30.88;;;-0.50;99.90;;;;;;4167088;28;20052;-85
2023/02/15 02:41:31;;;;;;;34.45;32.35;;;-0.50;99.90;;;;;;4168422;28;20049;-85
2023/02/15 02:44:02;;;;;;;38.03;35.22;;;-0.40;99.90;;;;;;4177271;28;20087;-85
2023/02/15 02:46:32;;;;;;;43.17;40.17;;;-0.50;99.90;;;;;;4164414;28;20150;-85
2023/02/15 02:48:53;;;;;;;46.08;42.60;;;-0.60;99.90;;;;;;4164242;28;20061;-85
2023/02/15 02:51:21;;;;;;;45.17;41.65;;;-0.80;99.90;;;;;;4164984;28;20052;-85
2023/02/15 02:53:42;;;;;;;50.70;46.85;;;-0.80;99.90;;;;;;4176919;28;20076;-85
2023/02/15 02:56:21;;;;;;;55.20;51.05;;;-0.90;99.90;;;;;;4167263;28;20387;-86
2023/02/15 02:58:47;;;;;;;55.53;51.13;;;-1.00;99.90;;;;;;4165777;28;20079;-85
2023/02/15 03:01:36;;;;;;;53.15;49.35;;;-1.10;99.90;;;;;;4176909;28;20060;-85
2023/02/15 03:04:19;;;;;;;53.92;50.00;;;-1.20;99.90;;;;;;4162377;28;20080;-85
2023/02/15 03:06:52;;;;;;;57.83;53.42;;;-1.20;99.90;;;;;;4171840;28;20113;-85
2023/02/15 03:09:17;;;;;;;54.28;50.67;;;-1.20;99.90;;;;;;4166346;28;20044;-85
2023/02/15 03:11:37;;;;;;;54.85;50.85;;;-1.20;99.90;;;;;;4165988;28;20285;-85
2023/02/15 03:13:58;;;;;;;49.95;46.85;;;-1.20;99.90;;;;;;4178049;28;20056;-85
2023/02/15 03:16:25;;;;;;;49.65;46.20;;;-1.10;99.90;;;;;;4162407;28;20076;-85
2023/02/15 03:18:52;;;;;;;51.00;47.85;;;-1.10;99.90;;;;;;4165180;28;20116;-85
2023/02/15 03:21:21;;;;;;;46.92;44.25;;;-1.10;99.90;;;;;;4163254;28;20084;-85
2023/02/15 03:23:41;;;;;;;52.22;48.00;;;-1.00;99.90;;;;;;4160906;28;20060;-85
2023/02/15 03:26:07;;;;;;;51.70;47.95;;;-1.00;99.90;;;;;;4173300;28;20049;-85
2023/02/15 03:28:45;;;;;;;52.45;48.83;;;-1.00;99.90;;;;;;4164544;28;20049;-85
2023/02/15 03:31:08;;;;;;;53.47;49.70;;;-1.10;99.90;;;;;;4165633;28;20092;-85
2023/02/15 03:33:29;;;;;;;54.75;50.78;;;-1.20;99.90;;;;;;4164926;28;20045;-85
2023/02/15 03:35:57;;;;;;;48.90;45.42;;;-1.30;99.90;;;;;;4165108;28;20106;-85
2023/02/15 03:38:25;;;;;;;50.22;46.83;;;-1.30;99.90;;;;;;4165653;28;20072;-85
2023/02/15 03:43:56;;;;;;;42.75;40.72;;;-1.20;99.90;;;;;;4165502;28;20052;-85
2023/02/15 03:46:16;;;;;;;43.33;40.90;;;-1.20;99.90;;;;;;4170515;28;20168;-85
2023/02/15 03:48:42;;;;;;;46.78;43.60;;;-1.20;99.90;;;;;;4178531;28;20044;-85
2023/02/15 03:53:48;;;;;;;55.70;51.92;;;-1.30;99.90;;;;;;4163786;28;20240;-85
2023/02/15 03:56:08;;;;;;;53.42;50.13;;;-1.40;99.90;;;;;;4162615;28;20057;-85
2023/02/15 04:04:19;;;;;;;54.88;51.38;;;-1.50;99.90;;;;;;4167211;28;20048;-85
2023/02/15 04:06:39;;;;;;;56.65;52.40;;;-1.50;99.90;;;;;;4168106;28;20052;-85
2023/02/15 04:11:38;;;;;;;53.38;49.83;;;-1.50;99.90;;;;;;4160405;28;20260;-85
2023/02/15 04:13:58;;;;;;;52.53;48.70;;;-1.50;99.90;;;;;;4162498;28;20048;-85
2023/02/15 04:16:18;;;;;;;48.40;45.33;;;-1.50;99.90;;;;;;4177150;28;20349;-85
2023/02/15 04:26:39;;;;;;;43.55;41.30;;;-1.20;99.90;;;;;;4160530;28;20040;-85
2023/02/15 04:28:59;;;;;;;46.75;44.15;;;-1.30;99.90;;;;;;4165695;28;20072;-85
2023/02/15 04:31:19;;;;;;;48.03;45.05;;;-1.30;99.90;;;;;;4167363;28;20085;-85
2023/02/15 04:33:39;;;;;;;52.22;49.00;;;-1.20;99.90;;;;;;4155802;28;20053;-85
2023/02/15 04:35:59;;;;;;;52.55;48.78;;;-1.30;99.90;;;;;;4161763;28;20064;-85
2023/02/15 04:38:22;;;;;;;54.90;50.95;;;-1.30;99.90;;;;;;4169781;28;20057;-85
2023/02/15 04:40:42;;;;;;;55.28;50.85;;;-1.40;99.90;;;;;;4172770;28;20113;-85
2023/02/15 04:43:01;;;;;;;54.13;50.13;;;-1.50;99.90;;;;;;4159752;28;20056;-85
2023/02/15 04:45:24;;;;;;;50.28;46.83;;;-1.40;99.90;;;;;;4172749;28;20366;-85
2023/02/15 04:47:44;;;;;;;51.50;47.97;;;-1.40;99.90;;;;;;4163540;28;20044;-85
2023/02/15 04:50:05;;;;;;;47.78;45.03;;;-1.40;99.90;;;;;;4160548;28;20124;-85
2023/02/15 04:52:25;;;;;;;44.65;42.45;;;-1.30;99.90;;;;;;4166343;28;20053;-85
2023/02/15 04:54:45;;;;;;;39.55;37.67;;;-1.30;99.90;;;;;;4169403;28;20052;-85
2023/02/15 04:57:06;;;;;;;39.42;37.55;;;-1.30;99.90;;;;;;4166945;28;20091;-85
2023/02/15 04:59:25;;;;;;;41.83;39.83;;;-1.20;99.90;;;;;;4167284;28;20049;-85
2023/02/15 05:01:46;;;;;;;42.20;39.70;;;-1.20;99.90;;;;;;4165281;28;20260;-85
2023/02/15 05:04:06;;;;;;;53.55;49.83;;;-1.40;99.90;;;;;;4163417;28;20077;-85
2023/02/15 05:06:26;;;;;;;48.60;45.78;;;-1.50;99.90;;;;;;4176125;28;20049;-85
2023/02/15 05:08:46;;;;;;;52.60;49.40;;;-1.60;99.90;;;;;;4160747;28;20072;-85
2023/02/15 05:11:06;;;;;;;50.88;47.78;;;-1.70;99.90;;;;;;4171630;28;20056;-85
2023/02/15 05:13:26;;;;;;;53.55;50.20;;;-1.70;99.90;;;;;;4159867;28;20083;-85
2023/02/15 05:15:48;;;;;;;52.83;49.80;;;-1.90;99.90;;;;;;4163336;28;20433;-85
2023/02/15 05:18:08;;;;;;;51.88;48.47;;;-1.90;99.90;;;;;;4174604;28;20040;-85
2023/02/15 05:20:28;;;;;;;54.85;51.10;;;-2.00;99.90;;;;;;4162906;28;20057;-85
2023/02/15 05:22:49;;;;;;;53.47;49.78;;;-2.00;99.90;;;;;;4162817;28;20048;-85
2023/02/15 05:30:26;;;;;;;55.83;52.55;;;-2.20;99.90;;;;;;4159671;28;20149;-85
2023/02/15 05:32:46;;;;;;;53.55;50.22;;;-2.20;99.90;;;;;;4175126;28;20052;-85
2023/02/15 05:35:07;;;;;;;49.42;46.55;;;-2.10;99.90;;;;;;4159324;28;20048;-85
2023/02/15 05:37:27;;;;;;;47.80;45.25;;;-2.00;99.90;;;;;;4161207;28;20244;-85
2023/02/15 05:39:47;;;;;;;48.92;46.13;;;-1.90;99.90;;;;;;4165673;28;20096;-85
2023/02/15 05:42:10;;;;;;;;;;;-2.00;99.90;;;;;;4175831;28;20047;-85
2023/02/15 05:44:30;;;;;;;55.42;51.95;;;-2.00;99.90;;;;;;4161542;28;19925;-85
2023/02/15 05:46:50;;;;;;;53.13;49.75;;;-2.00;99.90;;;;;;4162667;28;20364;-85
2023/02/15 05:49:10;;;;;;;53.33;50.25;;;-2.10;99.90;;;;;;4165358;28;20367;-85
2023/02/15 05:51:29;;;;;;;52.28;48.83;;;-2.10;99.90;;;;;;4157755;28;20049;-85
2023/02/15 05:53:50;;;;;;;58.65;54.60;;;-2.00;99.90;;;;;;4167782;28;20149;-85
2023/02/15 05:56:10;;;;;;;56.47;52.67;;;-2.10;99.90;;;;;;4164361;28;20160;-85
2023/02/15 05:58:34;;;;;;;53.75;50.70;;;-2.10;99.90;;;;;;4163244;28;20061;-85
2023/02/15 06:00:55;;;;;;;57.15;53.65;;;-2.10;99.90;;;;;;4164062;28;20045;-85
2023/02/15 06:03:14;;;;;;;53.63;50.30;;;-2.20;99.90;;;;;;4172214;28;20106;-85
2023/02/15 06:05:35;;;;;;;51.25;48.00;;;-2.10;99.90;;;;;;4162258;28;20071;-85
2023/02/15 06:07:54;;;;;;;52.17;49.20;;;-2.10;99.90;;;;;;4176914;28;20052;-85
2023/02/15 06:10:14;;;;;;;49.22;46.25;;;-2.10;99.90;;;;;;4163224;28;20400;-85
2023/02/15 06:12:34;;;;;;;48.80;45.95;;;-2.00;99.90;;;;;;4160945;28;20097;-85
2023/02/15 06:14:54;;;;;;;46.67;43.58;;;-2.00;99.90;;;;;;4164602;28;20045;-85
2023/02/15 06:17:14;;;;;;;50.55;47.42;;;-2.10;99.90;;;;;;4165480;28;20048;-85
2023/02/15 06:19:34;;;;;;;53.47;50.25;;;-2.20;99.90;;;;;;4172394;28;20052;-88
2023/02/15 06:21:54;;;;;;;54.40;51.08;;;-2.30;99.90;;;;;;4169269;28;20087;-88
2023/02/15 06:24:13;;;;;;;56.60;52.40;;;-2.40;99.90;;;;;;4169201;28;20053;-88
2023/02/15 06:26:33;;;;;;;50.80;47.83;;;-2.40;99.90;;;;;;4172115;28;20044;-88
2023/02/15 06:28:52;;;;;;;50.63;47.65;;;-2.30;99.90;;;;;;4167090;28;20052;-87
2023/02/15 06:31:12;;;;;;;41.53;39.55;;;-2.20;99.90;;;;;;4163667;28;20061;-87
2023/02/15 06:33:33;;;;;;;41.70;39.80;;;-2.10;99.90;;;;;;4161197;28;20064;-89
2023/02/15 06:35:53;;;;;;;45.28;42.97;;;-2.00;99.90;;;;;;4175469;28;20059;-90
2023/02/15 06:38:13;;;;;;;39.10;37.38;;;-2.00;99.90;;;;;;4163926;28;20094;-90
2023/02/15 06:40:33;;;;;;;44.00;41.63;;;-1.90;99.90;;;;;;4164723;28;20048;-90
2023/02/15 06:42:53;;;;;;;60.10;54.88;;;-1.90;99.90;;;;;;4166782;28;20096;-90
2023/02/15 06:45:14;;;;;;;63.78;57.20;;;-1.90;99.90;;;;;;4162001;28;20048;-90
2023/02/15 06:47:34;;;;;;;58.55;53.75;;;-1.90;99.90;;;;;;4161514;28;20045;-90
2023/02/15 06:49:54;;;;;;;54.30;50.75;;;-1.90;99.90;;;;;;4179094;28;20240;-90
2023/02/15 06:52:14;;;;;;;53.78;50.25;;;-1.90;99.90;;;;;;4168272;28;20076;-89
2023/02/15 06:54:34;;;;;;;58.15;54.13;;;-1.90;99.90;;;;;;4163505;28;20084;-90
2023/02/15 06:56:54;;;;;;;51.10;47.75;;;-2.00;99.90;;;;;;4162650;28;20076;-89
2023/02/15 06:59:14;;;;;;;54.85;51.55;;;-2.00;99.90;;;;;;4174667;28;20053;-89
2023/02/15 07:01:34;;;;;;;48.72;45.83;;;-2.10;99.90;;;;;;4166239;28;20053;-89
2023/02/15 07:03:54;;;;;;;50.05;47.03;;;-2.00;99.90;;;;;;4162360;28;20048;-90
2023/02/15 07:06:14;;;;;;;46.80;44.15;;;-1.90;99.90;;;;;;4166868;28;20045;-89
2023/02/15 07:08:35;;;;;;;46.50;43.60;;;-1.90;99.90;;;;;;4162223;28;20056;-89
2023/02/15 07:12:40;;;;;;;45.05;42.55;;;-1.90;99.90;;;;;;4161687;28;20423;-89
2023/02/15 07:13:38;;;;;;;;;;;-1.80;99.90;;;;;;4165945;28;20092;-89
2023/02/15 07:15:58;;;;;;;56.05;52.03;;;-1.70;99.90;;;;;;4171221;28;20247;-89
2023/02/15 07:18:19;;;;;;;48.70;45.88;;;-1.70;99.90;;;;;;4177945;28;20285;-89
2023/02/15 07:20:41;;;;;;;50.65;47.58;;;-1.70;99.90;;;;;;4171052;28;20091;-89
2023/02/15 07:23:01;;;;;;;49.70;46.80;;;-1.70;99.90;;;;;;4177886;28;20043;-89
2023/02/15 07:25:21;;;;;;;49.13;46.05;;;-1.70;99.90;;;;;;4170285;28;20391;-89
2023/02/15 07:27:43;;;;;;;48.85;46.00;;;-1.80;99.90;;;;;;4164231;28;20064;-89
2023/02/15 07:30:04;;;;;;;47.40;44.80;;;-1.70;99.90;;;;;;4163253;28;20049;-89
2023/02/15 07:32:26;;;;;;;53.53;50.25;;;-1.60;99.90;;;;;;4165347;28;20045;-89
2023/02/15 07:34:46;;;;;;;51.05;47.78;;;-1.50;99.90;;;;;;4163957;28;20044;-89
2023/02/15 07:37:06;;;;;;;49.40;46.58;;;-1.40;99.90;;;;;;4177692;28;20052;-89
2023/02/15 07:39:25;;;;;;;51.58;47.88;;;-1.40;99.90;;;;;;4161007;28;20096;-88
2023/02/15 07:41:45;;;;;;;55.40;51.97;;;-1.30;99.90;;;;;;4168023;28;20044;-89
2023/02/15 07:44:10;;;;;;;152.95;103.95;;;-1.30;99.90;;;;;;4166906;28;20112;-89
2023/02/15 07:46:30;;;;;;;65.18;59.22;;;-1.20;99.90;;;;;;4165479;28;20048;-88
2023/02/15 07:48:50;;;;;;;43.30;40.67;;;-1.00;99.90;;;;;;4165133;28;20086;-88
2023/02/15 07:51:12;;;;;;;49.15;45.72;;;-0.80;99.90;;;;;;4164575;28;20060;-88
2023/02/15 07:53:32;;;;;;;42.78;40.25;;;-0.70;99.90;;;;;;4159391;28;20359;-88
2023/02/15 07:55:52;;;;;;;28.08;26.15;;;-0.60;99.90;;;;;;4159886;28;20072;-89
2023/02/15 07:58:12;;;;;;;25.48;23.73;;;-0.50;99.90;;;;;;4180079;28;20116;-89
2023/02/15 08:00:55;;;;;;;20.55;19.05;;;-0.30;99.90;;;;;;4161338;28;20067;-89
2023/02/15 08:03:14;;;;;;;13.95;13.35;;;-0.20;99.90;;;;;;4163545;28;20057;-89
2023/02/15 08:05:34;;;;;;;15.57;14.80;;;0.00;99.90;;;;;;4161968;28;20279;-90
2023/02/15 08:07:54;;;;;;;15.00;14.38;;;0.20;99.90;;;;;;4169864;28;20132;-89
2023/02/15 08:11:24;;;;;;;14.23;13.25;;;0.40;99.90;;;;;;4162790;28;20287;-88
2023/02/15 08:12:54;;;;;;;16.95;15.70;;;0.60;99.90;;;;;;4161839;28;20233;-90
2023/02/15 08:15:14;;;;;;;14.18;13.27;;;0.80;99.90;;;;;;4160090;28;20049;-89
2023/02/15 08:17:36;;;;;;;12.45;11.75;;;0.90;99.90;;;;;;4178306;28;20095;-89
2023/02/15 08:19:56;;;;;;;11.57;11.20;;;1.10;99.90;;;;;;4163298;28;20076;-89
2023/02/15 08:22:17;;;;;;;10.43;10.32;;;1.30;99.90;;;;;;4161508;28;20127;-89
2023/02/15 08:24:37;;;;;;;10.50;10.30;;;1.50;99.90;;;;;;4161935;28;20073;-91
2023/02/15 08:26:58;;;;;;;19.92;18.55;;;1.70;99.90;;;;;;4162020;28;20371;-91
2023/02/15 08:29:22;;;;;;;15.10;14.15;;;1.80;99.90;;;;;;4159075;28;20072;-90
2023/02/15 08:31:41;;;;;;;;;;;1.90;99.90;;;;;;4181225;28;20119;-91
2023/02/15 08:34:02;;;;;;;22.88;19.48;;;2.10;99.90;;;;;;4162418;28;19967;-91
2023/02/15 08:36:29;;;;;;;43.70;32.13;;;2.00;99.90;;;;;;4165156;28;20045;-91
2023/02/15 08:38:49;;;;;;;31.30;28.23;;;2.00;99.90;;;;;;4175489;28;20048;-91
2023/02/15 08:41:18;;;;;;;38.03;31.05;;;2.10;99.90;;;;;;4169347;28;20044;-91
2023/02/15 08:43:38;;;;;;;40.65;33.35;;;2.10;99.90;;;;;;4164808;28;20272;-92
2023/02/15 08:45:59;;;;;;;33.22;29.45;;;2.20;99.90;;;;;;4174302;28;20113;-91
2023/02/15 08:48:19;;;;;;;28.73;25.63;;;2.40;99.90;;;;;;4172740;28;20092;-91
2023/02/15 08:50:39;;;;;;;23.33;21.10;;;2.40;99.90;;;;;;4174876;28;20109;-91
2023/02/15 08:52:59;;;;;;;28.15;23.83;;;2.50;99.90;;;;;;4171189;28;20040;-91
2023/02/15 08:55:19;;;;;;;35.22;29.52;;;2.50;99.90;;;;;;4162403;28;20049;-91
2023/02/15 08:57:44;;;;;;;27.92;24.35;;;2.60;99.90;;;;;;4163402;28;20045;-90
2023/02/15 09:00:05;;;;;;;24.88;22.35;;;2.80;99.90;;;;;;4180295;28;20362;-91
2023/02/15 09:02:26;;;;;;;27.77;24.85;;;2.90;99.90;;;;;;4161308;28;20061;-90
2023/02/15 09:04:46;;;;;;;18.88;17.40;;;3.10;99.90;;;;;;4166127;28;20371;-91
2023/02/15 09:07:07;;;;;;;11.18;10.73;;;3.20;99.40;;;;;;4163709;28;20083;-91
2023/02/15 09:09:28;;;;;;;11.50;11.10;;;3.40;98.00;;;;;;4162798;28;20041;-91
2023/02/15 09:11:53;;;;;;;10.18;9.57;;;3.60;97.60;;;;;;4174556;28;20045;-91
2023/02/15 09:14:21;;;;;;;8.77;8.57;;;3.90;97.30;;;;;;4171550;28;20141;-91
2023/02/15 09:16:48;;;;;;;8.45;7.95;;;4.10;96.70;;;;;;4166013;28;20049;-91
2023/02/15 09:19:08;;;;;;;6.57;6.43;;;4.30;96.00;;;;;;4163633;28;20076;-91
2023/02/15 09:21:29;;;;;;;6.13;6.03;;;4.50;95.30;;;;;;4172235;28;20088;-91
2023/02/15 09:23:50;;;;;;;7.18;7.03;;;4.70;94.80;;;;;;4162640;28;20053;-91
2023/02/15 09:26:13;;;;;;;14.95;13.65;;;4.90;94.40;;;;;;4175813;28;20067;-91
2023/02/15 09:28:33;;;;;;;8.77;8.48;;;5.10;94.70;;;;;;4165977;28;20292;-90
2023/02/15 09:30:53;;;;;;;9.23;8.82;;;5.30;95.50;;;;;;4159589;28;20132;-90
2023/02/15 09:33:13;;;;;;;9.52;9.15;;;5.50;95.60;;;;;;4177214;28;20049;-91
2023/02/15 09:35:45;;;;;;;11.98;11.38;;;5.60;95.60;;;;;;4164042;28;20279;-91
2023/02/15 09:38:11;;;;;;;11.50;10.43;;;5.80;95.30;;;;;;4170311;28;20232;-90
2023/02/15 09:40:43;;;;;;;17.52;15.73;;;5.90;95.70;;;;;;4162516;28;20044;-91
2023/02/15 09:43:19;;;;;;;11.60;10.77;;;6.10;95.00;;;;;;4170267;28;20037;-90
2023/02/15 09:46:03;;;;;;;13.38;12.15;;;6.30;94.50;;;;;;4169849;28;20087;-91
2023/02/15 09:48:57;;;;;;;14.57;13.32;;;6.50;94.30;;;;;;4175045;28;20080;-90
2023/02/15 09:55:45;;;;;;;24.20;17.05;;;7.00;93.90;;;;;;4165895;28;20044;-92
2023/02/15 09:58:47;;;;;;;36.00;25.60;;;7.30;93.70;;;;;;4172811;28;20108;-91
2023/02/15 10:01:46;;;;;;;26.23;20.45;;;7.70;93.10;;;;;;4180137;28;20324;-91
2023/02/15 10:04:37;;;;;;;22.88;19.27;;;8.00;92.80;;;;;;4162710;28;20100;-91
2023/02/15 10:07:59;;;;;;;19.50;16.75;;;8.30;93.00;;;;;;4166016;28;20057;-92
2023/02/15 10:10:34;;;;;;;27.27;21.35;;;9.00;93.60;;;;;;4162982;28;20403;-91
2023/02/15 10:13:09;;;;;;;27.83;20.70;;;9.60;91.90;;;;;;4166452;28;20363;-90
2023/02/15 10:15:47;;;;;;;26.10;20.65;;;9.50;91.30;;;;;;4166398;28;20109;-91
2023/02/15 10:18:36;;;;;;;44.85;33.55;;;9.50;91.20;;;;;;4164428;28;20220;-91
2023/02/15 10:21:34;;;;;;;21.40;18.75;;;9.70;90.40;;;;;;4171171;28;20053;-91
2023/02/15 10:24:14;;;;;;;18.27;16.35;;;10.40;92.10;;;;;;4179163;28;20335;-91
2023/02/15 10:26:47;;;;;;;19.00;17.02;;;11.00;91.20;;;;;;4164961;28;20040;-91
2023/02/15 10:29:09;;;;;;;16.63;14.95;;;11.90;88.20;;;;;;4176776;28;20264;-90
2023/02/15 10:31:56;;;;;;;5.00;4.70;;;12.30;87.70;;;;;;4165097;28;20100;-91
2023/02/15 10:34:19;;;;;;;5.50;5.20;;;12.40;77.80;;;;;;4176090;28;20153;-91
2023/02/15 10:36:58;;;;;;;;;;;12.60;80.90;;;;;;4163500;28;20053;-90
2023/02/15 10:39:50;;;;;;;5.00;4.43;;;13.00;79.30;;;;;;4167256;28;19984;-91
2023/02/15 10:42:15;;;;;;;4.38;3.90;;;13.50;77.60;;;;;;4162438;28;20116;-91
2023/02/15 10:44:48;;;;;;;3.60;3.50;;;14.10;75.80;;;;;;4170972;28;20086;-91
2023/02/15 10:47:10;;;;;;;4.18;3.88;;;14.00;74.10;;;;;;4164315;28;20041;-91
2023/02/15 10:49:50;;;;;;;6.00;3.30;;;14.40;75.60;;;;;;4170664;28;20049;-91
2023/02/15 10:52:50;;;;;;;3.92;3.72;;;14.20;71.40;;;;;;4162175;28;20037;-91
2023/02/15 10:55:25;;;;;;;3.22;3.10;;;14.00;71.90;;;;;;4166486;28;20105;-91
2023/02/15 10:58:13;;;;;;;3.60;3.20;;;14.10;70.30;;;;;;4181289;28;20075;-91
2023/02/15 11:00:45;;;;;;;3.45;3.20;;;14.20;71.50;;;;;;4162040;28;20045;-91
2023/02/15 11:03:39;;;;;;;4.20;3.97;;;14.50;69.30;;;;;;4163850;28;20049;-91
2023/02/15 11:06:13;;;;;;;4.75;4.45;;;14.60;68.30;;;;;;4164623;28;20067;-91
2023/02/15 11:08:35;;;;;;;;;;;14.90;69.30;;;;;;4167385;28;20048;-90
2023/02/15 11:11:01;;;;;;;3.25;3.05;;;15.10;67.20;;;;;;4167827;28;19927;-90
2023/02/15 11:13:28;;;;;;;6.35;3.88;;;15.40;66.90;;;;;;4176626;28;20091;-90
2023/02/15 11:16:15;;;;;;;5.05;3.65;;;15.90;69.30;;;;;;4164584;28;20236;-91
2023/02/15 11:18:59;;;;;;;3.80;3.60;;;16.40;63.10;;;;;;4176649;28;20053;-91
2023/02/15 11:21:24;;;;;;;5.57;3.88;;;16.50;63.70;;;;;;4159941;28;20376;-91
2023/02/15 11:23:46;;;;;;;5.97;3.55;;;16.60;62.40;;;;;;4182717;28;20235;-90
2023/02/15 11:26:28;;;;;;;3.92;3.83;;;16.90;62.20;;;;;;4172227;28;20080;-91
2023/02/15 11:29:17;;;;;;;5.25;4.85;;;16.60;61.10;;;;;;4174632;28;20105;-90
2023/02/15 11:31:53;;;;;;;3.90;2.85;;;17.00;59.10;;;;;;4123649;28;20082;-91
2023/02/15 11:34:21;;;;;;;3.85;2.70;;;17.10;63.60;;;;;;4123799;28;20041;-91
2023/02/15 11:36:43;;;;;;;2.13;2.10;;;17.30;61.90;;;;;;4121926;28;20057;-91
2023/02/15 11:39:13;;;;;;;2.15;2.05;;;17.60;60.00;;;;;;4125838;28;20262;-91
2023/02/15 11:41:40;;;;;;;2.95;1.92;;;17.50;59.20;;;;;;4123639;28;20139;-91
2023/02/15 11:44:05;;;;;;;2.40;1.98;;;18.00;61.50;;;;;;4120435;28;20042;-91
2023/02/15 11:46:25;;;;;;;3.00;1.52;;;17.70;56.00;;;;;;4123662;28;20281;-92
2023/02/15 11:48:46;;;;;;;2.10;2.00;;;17.50;54.30;;;;;;4123457;28;20045;-91
2023/02/15 11:51:10;;;;;;;3.00;1.50;;;17.70;54.50;;;;;;4123576;28;20061;-91
2023/02/15 11:53:37;;;;;;;2.90;1.30;;;17.70;55.70;;;;;;4122899;28;20078;-91
2023/02/15 11:55:57;;;;;;;2.08;1.50;;;17.80;53.40;;;;;;4123959;28;20857;-91
2023/02/15 11:58:23;;;;;;;1.10;1.10;;;17.90;53.10;;;;;;4124516;28;20233;-91
2023/02/15 12:00:46;;;;;;;1.35;1.30;;;17.80;51.70;;;;;;4124422;28;20042;-91
2023/02/15 12:03:29;;;;;;;1.88;1.20;;;17.90;53.50;;;;;;4123878;28;20115;-90
2023/02/15 12:06:01;;;;;;;1.80;1.70;;;18.10;53.40;;;;;;4123661;28;20290;-91
2023/02/15 12:08:22;;;;;;;1.90;1.80;;;18.40;57.60;;;;;;4134300;28;20052;-91
2023/02/15 12:11:12;;;;;;;2.25;1.50;;;18.10;53.80;;;;;;4161770;28;20183;-91
2023/02/15 12:13:35;;;;;;;2.35;1.88;;;18.20;54.30;;;;;;4149011;28;20084;-90
2023/02/15 12:15:57;;;;;;;2.08;1.73;;;18.40;53.70;;;;;;4161461;28;20112;-90
2023/02/15 12:18:36;;;;;;;2.60;1.60;;;18.10;52.70;;;;;;4150191;28;20149;-91
2023/02/15 12:21:10;;;;;;;2.13;1.90;;;18.20;52.70;;;;;;4150353;28;20080;-90
2023/02/15 12:23:32;;;;;;;1.33;1.33;;;18.40;53.80;;;;;;4150394;28;20048;-90
2023/02/15 12:25:55;;;;;;;3.47;1.42;;;18.20;52.60;;;;;;4143480;28;20049;-90
2023/02/15 12:28:35;;;;;;;1.42;1.38;;;18.20;53.20;;;;;;4149382;28;20065;-90
2023/02/15 12:31:02;;;;;;;1.40;1.30;;;18.30;52.40;;;;;;4150712;28;20083;-92
2023/02/15 12:33:54;;;;;;;1.77;1.75;;;18.40;53.40;;;;;;4161901;28;20041;-91
2023/02/15 12:36:22;;;;;;;1.98;1.98;;;18.50;52.90;;;;;;4146587;28;20049;-91
2023/02/15 12:38:42;;;;;;;1.83;1.77;;;18.40;52.50;;;;;;4148391;28;20252;-91
2023/02/15 12:41:05;;;;;;;1.85;1.75;;;18.60;52.70;;;;;;4143571;28;20085;-87
2023/02/15 12:43:26;;;;;;;;;;;18.50;53.00;;;;;;4151609;28;20229;-87
2023/02/15 12:45:45;;;;;;;2.13;1.92;;;18.70;53.40;;;;;;4147855;28;19924;-87
2023/02/15 12:48:14;;;;;;;1.92;1.70;;;18.70;52.50;;;;;;4146489;28;20057;-87
2023/02/15 12:50:34;;;;;;;1.73;1.63;;;18.80;53.90;;;;;;4148586;28;20072;-87
2023/02/15 12:53:07;;;;;;;2.35;1.50;;;19.00;53.50;;;;;;4150429;28;20049;-87
2023/02/15 12:55:30;;;;;;;1.80;1.70;;;18.80;53.90;;;;;;4142688;28;20376;-87
2023/02/15 12:58:05;;;;;;;;;;;19.20;52.30;;;;;;4148769;28;20387;-87
2023/02/15 13:00:28;;;;;;;1.67;1.58;;;19.30;53.10;;;;;;4148797;28;19940;-87
2023/02/15 13:02:52;;;;;;;3.15;1.60;;;19.10;53.60;;;;;;4144448;28;20116;-87